createdAt,value
2023-01-19T00:02:51.828Z,99407.97
2023-01-19T00:07:54.985Z,99419.13
2023-01-19T00:12:56.784Z,99412.31
2023-01-19T00:17:58.506Z,99415.69
2023-01-19T00:23:01.963Z,99420.75
2023-01-19T00:28:04.105Z,99414.91
2023-01-19T00:33:05.877Z,99411.47
2023-01-19T00:38:09.071Z,99412.25
2023-01-19T00:43:10.738Z,99410.47
2023-01-19T00:48:12.386Z,99405.31
2023-01-19T00:53:15.407Z,99408.00
2023-01-19T00:58:17.056Z,99410.53
2023-01-19T01:03:18.753Z,99415.75
2023-01-19T01:08:21.800Z,99409.75
2023-01-19T01:13:26.181Z,99411.56
2023-01-19T01:18:29.097Z,99408.16
2023-01-19T01:23:32.098Z,99417.69
2023-01-19T01:28:33.759Z,99426.34
2023-01-19T01:33:40.531Z,99424.69
2023-01-19T01:38:44.768Z,99427.25
2023-01-19T01:43:47.618Z,99428.91
2023-01-19T01:48:50.811Z,99419.41
2023-01-19T01:54:04.078Z,99418.72
2023-01-19T01:59:07.546Z,99415.28
2023-01-19T02:04:09.821Z,99414.31
2023-01-19T02:09:31.410Z,99422.91
2023-01-19T02:14:34.491Z,99415.22
2023-01-19T02:19:39.253Z,99409.25
2023-01-19T02:24:42.317Z,99411.00
2023-01-19T02:29:44.055Z,99398.88
2023-01-19T02:34:45.717Z,99406.47
2023-01-19T02:39:50.796Z,99402.34
2023-01-19T02:44:53.602Z,99398.91
2023-01-19T02:49:56.252Z,99417.06
2023-01-19T02:55:02.137Z,99398.97
2023-01-19T03:00:09.668Z,99405.00
2023-01-19T03:05:19.725Z,99401.66
2023-01-19T03:10:28.432Z,99409.19
2023-01-19T03:15:31.958Z,99400.63
2023-01-19T03:20:33.952Z,99399.88
2023-01-19T03:25:38.387Z,99397.19
2023-01-19T03:30:41.561Z,99399.75
2023-01-19T03:35:44.886Z,99400.63
2023-01-19T03:40:48.175Z,99398.09
2023-01-19T03:45:49.880Z,99408.34
2023-01-19T03:50:51.868Z,99410.22
2023-01-19T03:55:55.022Z,99421.34
2023-01-19T04:00:56.801Z,99423.00
2023-01-19T04:05:58.560Z,99417.00
2023-01-19T04:11:01.606Z,99413.44
2023-01-19T04:16:03.768Z,99410.00
2023-01-19T04:21:06.948Z,99407.34
2023-01-19T04:26:09.956Z,99408.31
2023-01-19T04:31:11.677Z,99410.75
2023-01-19T04:36:13.737Z,99415.03
2023-01-19T04:41:17.004Z,99403.75
2023-01-19T04:46:18.734Z,99407.28
2023-01-19T04:51:20.483Z,99408.38
2023-01-19T04:56:23.521Z,99408.63
2023-01-19T05:01:25.287Z,99414.03
2023-01-19T05:06:27.091Z,99417.50
2023-01-19T05:11:30.770Z,99411.75
2023-01-19T05:16:32.683Z,99402.47
2023-01-19T05:21:34.401Z,99409.38
2023-01-19T05:26:37.664Z,99400.84
2023-01-19T05:31:39.478Z,99407.44
2023-01-19T05:36:41.320Z,99405.38
2023-01-19T05:41:47.700Z,99406.56
2023-01-19T05:46:49.461Z,99398.19
2023-01-19T05:51:51.156Z,99404.38
2023-01-19T05:56:54.302Z,99405.13
2023-01-19T06:01:57.118Z,99406.59
2023-01-19T06:06:58.944Z,99408.34
2023-01-19T06:12:02.037Z,99414.56
2023-01-19T06:17:05.966Z,99417.50
2023-01-19T06:22:07.668Z,99418.44
2023-01-19T06:27:11.390Z,99417.59
2023-01-19T06:32:13.071Z,99427.75
2023-01-19T06:37:16.652Z,99432.91
2023-01-19T06:42:19.821Z,99436.38
2023-01-19T06:47:21.671Z,99445.84
2023-01-19T06:52:23.393Z,99448.56
2023-01-19T06:57:26.594Z,99445.16
2023-01-19T07:02:28.898Z,99454.69
2023-01-19T07:07:31.123Z,99463.28
2023-01-19T07:12:34.120Z,99466.84
2023-01-19T07:17:36.300Z,99474.69
2023-01-19T07:22:38.086Z,99469.69
2023-01-19T07:27:41.113Z,99485.97
2023-01-19T07:32:43.459Z,99486.78
2023-01-19T07:37:45.172Z,99493.81
2023-01-19T07:42:48.748Z,99508.50
2023-01-19T07:47:51.019Z,99508.53
2023-01-19T07:52:53.309Z,99513.00
2023-01-19T07:57:56.343Z,99513.94
2023-01-19T08:02:59.427Z,99511.47
2023-01-19T08:08:01.402Z,99521.03
2023-01-19T08:13:04.449Z,99519.34
2023-01-19T08:18:06.849Z,99517.72
2023-01-19T08:23:08.622Z,99512.56
2023-01-19T08:28:12.988Z,99506.53
2023-01-19T08:33:14.731Z,99515.28
2023-01-19T08:38:17.086Z,99511.13
2023-01-19T08:43:20.279Z,99526.13
2023-01-19T08:48:22.674Z,99516.28
2023-01-19T08:53:24.445Z,99530.50
2023-01-19T08:58:27.556Z,99518.00
2023-01-19T09:03:29.528Z,99521.13
2023-01-19T09:08:31.274Z,99532.59
2023-01-19T09:13:34.386Z,99534.06
2023-01-19T09:18:36.086Z,99540.50
2023-01-19T09:23:37.791Z,99546.78
2023-01-19T09:28:40.759Z,99546.31
2023-01-19T09:33:42.444Z,99554.59
2023-01-19T09:38:44.113Z,99552.59
2023-01-19T09:43:48.434Z,99556.66
2023-01-19T09:48:51.232Z,99553.97
2023-01-19T09:54:00.548Z,99548.72
2023-01-19T09:59:06.126Z,99550.59
2023-01-19T10:04:16.965Z,99555.19
2023-01-19T10:09:20.766Z,99549.25
2023-01-19T10:14:25.867Z,99547.91
2023-01-19T10:19:29.355Z,99552.63
2023-01-19T10:24:33.252Z,99556.56
2023-01-19T10:29:37.726Z,99553.78
2023-01-19T10:34:39.537Z,99553.72
2023-01-19T10:39:41.216Z,99542.31
2023-01-19T10:44:45.730Z,99555.00
2023-01-19T10:49:47.811Z,99547.09
2023-01-19T10:54:49.551Z,99550.56
2023-01-19T10:59:52.754Z,99548.56
2023-01-19T11:04:55.796Z,99558.22
2023-01-19T11:10:22.974Z,99552.19
2023-01-19T11:15:29.730Z,99561.66
2023-01-19T11:20:35.815Z,99558.13
2023-01-19T11:25:37.569Z,99570.19
2023-01-19T11:30:53.933Z,99571.72
2023-01-19T11:36:02.270Z,99575.28
2023-01-19T11:41:06.565Z,99577.75
2023-01-19T11:46:09.878Z,99575.09
2023-01-19T11:51:13.604Z,99580.34
2023-01-19T11:56:15.867Z,99569.00
2023-01-19T12:01:21.154Z,99574.06
2023-01-19T12:06:25.277Z,99579.13
2023-01-19T12:11:31.467Z,99584.38
2023-01-19T12:16:34.500Z,99581.72
2023-01-19T12:21:36.323Z,99581.81
2023-01-19T12:26:38.615Z,99581.91
2023-01-19T12:31:42.973Z,99591.19
2023-01-19T12:36:45.182Z,99584.34
2023-01-19T12:41:50.981Z,99594.72
2023-01-19T12:46:55.169Z,99595.56
2023-01-19T12:52:11.838Z,99598.22
2023-01-19T12:57:18.500Z,99600.81
2023-01-19T13:02:45.252Z,99599.84
2023-01-19T13:08:18.723Z,99616.44
2023-01-19T13:13:21.273Z,99614.78
2023-01-19T13:18:24.833Z,99615.81
2023-01-19T13:23:27.089Z,99609.69
2023-01-19T13:28:41.036Z,99622.63
2023-01-19T13:33:47.982Z,99626.94
2023-01-19T13:38:50.033Z,99631.06
2023-01-19T13:43:57.009Z,99643.78
2023-01-19T13:49:02.304Z,99649.50
2023-01-19T13:54:05.568Z,99650.25
2023-01-19T13:59:11.782Z,99662.19
2023-01-19T14:04:28.491Z,99675.69
2023-01-19T14:09:30.264Z,99678.06
2023-01-19T14:14:32.025Z,99689.13
2023-01-19T14:19:48.541Z,99692.59
2023-01-19T14:24:50.251Z,99696.00
2023-01-19T14:29:53.741Z,99703.88
2023-01-19T14:35:14.907Z,99703.00
2023-01-19T14:40:18.381Z,99698.06
2023-01-19T14:45:21.913Z,99710.13
2023-01-19T14:50:26.143Z,99727.28
2023-01-19T14:55:32.176Z,99730.66
2023-01-19T15:00:33.850Z,99731.50
2023-01-19T15:05:36.856Z,99736.81
2023-01-19T15:10:38.696Z,99742.91
2023-01-19T15:15:55.643Z,99755.91
2023-01-19T15:21:02.895Z,99756.78
2023-01-19T15:26:04.955Z,99765.47
2023-01-19T15:31:06.722Z,99773.25
2023-01-19T15:36:12.380Z,99774.97
2023-01-19T15:41:14.833Z,99785.31
2023-01-19T15:46:17.303Z,99794.88
2023-01-19T15:51:25.623Z,99808.41
2023-01-19T15:56:29.272Z,99808.41
2023-01-19T16:01:32.904Z,99815.28
2023-01-19T16:06:36.864Z,99830.81
2023-01-19T16:11:38.685Z,99831.66
2023-01-19T16:16:40.575Z,99835.84
2023-01-19T16:21:43.935Z,99842.69
2023-01-19T16:26:45.569Z,99842.31
2023-01-19T16:31:47.256Z,99837.22
2023-01-19T16:36:50.297Z,99852.50
2023-01-19T16:41:51.988Z,99857.53
2023-01-19T16:46:54.435Z,99858.25
2023-01-19T16:51:58.390Z,99858.91
2023-01-19T16:57:00.448Z,99869.06
2023-01-19T17:02:02.563Z,99865.47
2023-01-19T17:07:05.661Z,99871.28
2023-01-19T17:12:09.115Z,99876.38
2023-01-19T17:17:10.870Z,99876.28
2023-01-19T17:22:14.923Z,99879.63
2023-01-19T17:27:17.262Z,99885.50
2023-01-19T17:32:19.013Z,99899.22
2023-01-19T17:37:22.017Z,99904.22
2023-01-19T17:42:24.318Z,99906.81
2023-01-19T17:47:26.279Z,99916.06
2023-01-19T17:52:29.647Z,99921.25
2023-01-19T17:57:31.474Z,99921.16
2023-01-19T18:02:34.343Z,99920.22
2023-01-19T18:07:37.446Z,99921.81
2023-01-19T18:12:39.244Z,99931.03
2023-01-19T18:17:41.078Z,99936.19
2023-01-19T18:22:44.262Z,99935.19
2023-01-19T18:27:45.946Z,99946.41
2023-01-19T18:32:47.680Z,99947.97
2023-01-19T18:37:51.241Z,99955.44
2023-01-19T18:42:52.995Z,99954.75
2023-01-19T18:47:54.740Z,99959.03
2023-01-19T18:52:57.875Z,99960.75
2023-01-19T18:57:59.579Z,99971.09
2023-01-19T19:03:01.403Z,99975.25
2023-01-19T19:08:05.044Z,99979.53
2023-01-19T19:13:06.766Z,99982.19
2023-01-19T19:18:08.971Z,99983.13
2023-01-19T19:23:12.006Z,99988.19
2023-01-19T19:28:13.659Z,99988.09
2023-01-19T19:33:15.372Z,99992.72
2023-01-19T19:38:18.428Z,100000.25
2023-01-19T19:43:21.052Z,100002.84
2023-01-19T19:48:23.117Z,100016.53
2023-01-19T19:53:26.143Z,100021.72
2023-01-19T19:58:28.196Z,100022.34
2023-01-19T20:03:30.492Z,100030.06
2023-01-19T20:08:33.658Z,100039.25
2023-01-19T20:13:35.626Z,100050.38
2023-01-19T20:18:37.497Z,100050.25
2023-01-19T20:23:40.601Z,100057.88
2023-01-19T20:28:42.354Z,100068.97
2023-01-19T20:33:44.055Z,100075.94
2023-01-19T20:38:47.095Z,100091.38
2023-01-19T20:43:48.905Z,100093.88
2023-01-19T20:48:53.515Z,100096.53
2023-01-19T20:53:57.065Z,100099.50
2023-01-19T20:58:58.901Z,100105.25
2023-01-19T21:04:00.824Z,100110.06
2023-01-19T21:09:04.141Z,100114.75
2023-01-19T21:14:05.942Z,100124.31
2023-01-19T21:19:07.902Z,100126.59
2023-01-19T21:24:11.048Z,100133.22
2023-01-19T21:29:13.903Z,100136.34
2023-01-19T21:34:15.648Z,100142.59
2023-01-19T21:39:18.692Z,100146.72
2023-01-19T21:44:20.410Z,100144.28
2023-01-19T21:49:22.164Z,100146.84
2023-01-19T21:54:25.162Z,100154.38
2023-01-19T21:59:27.014Z,100158.00
2023-01-19T22:04:28.710Z,100170.25
2023-01-19T22:09:33.245Z,100174.72
2023-01-19T22:14:34.949Z,100173.94
2023-01-19T22:19:36.662Z,100175.81
2023-01-19T22:24:39.932Z,100182.53
2023-01-19T22:29:41.613Z,100192.13
2023-01-19T22:34:43.303Z,100200.66
2023-01-19T22:39:46.426Z,100199.97
2023-01-19T22:44:48.168Z,100210.44
2023-01-19T22:49:49.909Z,100207.25
2023-01-19T22:54:56.173Z,100216.66
2023-01-19T22:59:57.865Z,100224.38
2023-01-19T23:04:59.704Z,100219.19
2023-01-19T23:10:02.739Z,100235.50
2023-01-19T23:15:05.550Z,100237.28
2023-01-19T23:20:08.714Z,100243.41
2023-01-19T23:25:12.194Z,100239.94
2023-01-19T23:30:14.741Z,100245.00
2023-01-19T23:35:16.551Z,100254.19
2023-01-19T23:40:19.765Z,100252.34
2023-01-19T23:45:21.447Z,100261.78
2023-01-19T23:50:23.214Z,100267.75
2023-01-19T23:55:27.127Z,100273.75
